Tiempo atmosférico en la estación meteorológica de Arico, Santa Cruz de Tenerife (418 m.)



Fecha
DESCASC
Temp. máxima en grados centígrados (hora)
DESCASC
Temp. mínima en grados centígrados (hora)
DESCASC
Temp. media en grados centígrados
DESCASC
Racha de viento máxima en m/sg (hora)
DESCASC
Velocidad máxima media en intervalos de 10 minutos(hora)
DESCASC
Precipitaciones diarias en mm
DESCASC
Precipitaciones de 00:00 a 06:00 en mm
DESCASC
Precipitaciones de 06:00 a 12:00 en mm
DESCASC
Precipitaciones de 12:00 a 18:00 en mm
DESCASC
Precipitaciones de 18:00 a 24:00 en mm
DESCASC
31-03-2020 19.3 (17:20) 13.9 (02:30) 16.6 5 (13:00) 3.06 (16:50) 0.8 0 0 0 0.8
29-03-2020 17.4 (12:00) 11.9 (00:00) 14.6 6.94 (18:30) 3.89 (14:20) 0 0 0 0 0
28-03-2020 18.4 (10:00) 12.1 (00:00) 15.3 7.78 (12:50) 4.17 (02:20) 4 0.2 0 2.4 1.4
27-03-2020 17.5 (11:10) 11.9 (00:00) 14.7 6.94 (11:50) 4.17 (11:40) 7.4 0 0.2 7.2 0
26-03-2020 18.8 (10:50) 12.4 (00:00) 15.6 6.39 (12:50) 3.89 (11:50) 3.2 0 0 0 3.2
25-03-2020 18.7 (12:20) 12.8 (00:00) 15.8 7.5 (11:10) 4.44 (11:00) 3.2 0 0 2.8 0.4
24-03-2020 20.6 (11:30) 13.1 (00:00) 16.9 10.83 (13:40) 7.22 (13:20) 0 0 0 0 0
23-03-2020 21 (15:50) 11.3 (00:00) 16.2 16.67 (06:10) 7.78 (06:10) 4.4 2.6 1.8 0 0
22-03-2020 18.2 (12:40) 12 (05:00) 15.1 7.78 (10:50) 5.56 (23:20) 0 0 0 0 0
21-03-2020 18.8 (12:00) 12.8 (00:00) 15.8 15 (11:50) 6.94 (11:40) 0 0 0 0 0
20-03-2020 21.9 (12:40) 13 (00:00) 17.4 11.39 (14:10) 6.94 (13:10) 0 0 0 0 0
19-03-2020 22.8 (13:50) 12.4 (00:00) 17.6 10.56 (16:50) 5.83 (16:40) 0 0 0 0 0
18-03-2020 19.9 (12:30) 11.1 (00:00) 15.5 9.44 (13:50) 5.28 (17:10) 0 0 0 0 0
17-03-2020 17.9 (12:50) 11.8 (00:00) 14.8 15.56 (12:40) 9.17 (11:30) 0 0 0 0 0
16-03-2020 20.1 (14:30) 12.1 (00:00) 16.1 18.33 (11:10) 10.83 (11:10) 0 0 0 0 0
15-03-2020 18.7 (16:40) 11.6 (00:00) 15.2 11.39 (11:20) 6.39 (12:30) 0 0 0 0 0
14-03-2020 18 (11:10) 12.8 (00:00) 15.4 13.33 (11:30) 8.61 (11:20) 0 0 0 0 0
13-03-2020 19.7 (12:10) 13.1 (07:20) 16.4 13.33 (13:50) 8.06 (13:30) 0 0 0 0 0
12-03-2020 25.4 (11:50) 13.3 (00:00) 19.3 6.67 (14:00) 4.72 (14:00) 0 0 0 0 0
11-03-2020 25.6 (14:10) 12.8 (00:00) 19.2 5.83 (06:20) 3.89 (23:59) 0 0 0 0 0
10-03-2020 24.3 (12:20) 13.3 (00:00) 18.8 8.33 (14:10) 5.28 (14:10) 0 0 0 0 0
09-03-2020 25.2 (13:10) 13.1 (00:00) 19.2 7.22 (14:10) 4.72 (15:00) 0 0 0 0 0
08-03-2020 23.8 (12:00) 12.5 (00:00) 18.1 10.28 (16:50) 5.56 (03:50) 0 0 0 0 0
07-03-2020 19.3 (13:10) 13 (00:00) 16.1 15.56 (15:50) 9.17 (11:10) 0 0 0 0 0
06-03-2020 18.3 (13:40) 13.3 (00:00) 15.8 19.44 (12:00) 12.22 (11:50) 0 0 0 0 0
05-03-2020 19.4 (13:40) 14.2 (00:00) 16.8 13.89 (23:40) 9.17 (23:40) 0 0 0 0 0
04-03-2020 24 (11:50) 14.1 (07:40) 19.1 8.61 (14:50) 5.28 (15:20) 0 0 0 0 0
03-03-2020 20.6 (14:00) 12.9 (00:00) 16.8 11.11 (15:50) 6.94 (12:40) 0 0 0 0 0
02-03-2020 21.4 (12:50) 13.1 (00:00) 17.3 11.67 (14:50) 6.67 (22:00) 0 0 0 0 0

Gráficas

Temp. máximas Temp. mínimas Temp. medias Precipitaciones Rachas de viento máximas Velocidades máximas media en intervalos de 10 minutos

Datos horarios

Fecha y hora oficial Temperatura (ºC) Velocidad del viento (km/h) Dirección del viento Racha (km/h) Dirección de racha Precipitación (mm) Presión (hPa) Tendencia (hPa) Humedad (%)
2020-03-31 23:00:00 16 7 Este 12 Este 0 -- -- 93
2020-03-31 22:00:00 16.2 3 Nordeste 6 Nordeste 0 -- -- 88
2020-03-31 21:00:00 16.5 4 Este 6 Este 0 -- -- 84
2020-03-31 20:00:00 17.1 3 Este 13 Nordeste 0 -- -- 81
2020-03-31 19:00:00 17.7 3 Este 10 Sur 0 -- -- 73
2020-03-31 18:00:00 18.3 7 Sur 16 Sudeste 0 -- -- 71
2020-03-31 17:00:00 18.3 9 Sur 17 Sur 0 -- -- 73
2020-03-31 16:00:00 17.6 5 Sur 13 Sur 0 -- -- 75
2020-03-31 15:00:00 16.9 10 Sudoeste 15 Sudoeste 0 -- -- 80
2020-03-31 14:00:00 16.9 8 Sudeste 15 Sudeste 0 -- -- 83
2020-03-31 13:00:00 17.4 10 Sudeste 18 Sudeste 0 -- -- 85
2020-03-31 12:00:00 18 7 Sudeste 14 Sudeste 0 -- -- 80
2020-03-31 11:00:00 18.5 6 Este 12 Nordeste 0 -- -- 76
2020-03-31 10:00:00 16.5 4 Nordeste 6 Este 0 -- -- 82
2020-03-31 09:00:00 14.4 5 Noroeste 8 Noroeste 0 -- -- 81
2020-03-31 08:00:00 13.9 6 Noroeste 12 Noroeste 0 -- -- 83
2020-03-31 07:00:00 14.1 4 Noroeste 7 Noroeste 0 -- -- 89
2020-03-31 06:00:00 14.3 5 Noroeste 8 Sudoeste 0 -- -- 87
2020-03-31 05:00:00 14.7 8 Oeste 12 Sudoeste 0 -- -- 86
2020-03-31 04:00:00 14.5 10 Sudoeste 16 Sudoeste 0 -- -- 88
2020-03-31 03:00:00 14 8 Oeste 13 Oeste 0 -- -- 90
2020-03-31 02:00:00 14.3 0 Calma 4 Noroeste 0 -- -- 92
2020-03-31 01:00:00 14.6 3 Norte 6 Nordeste 0 -- -- 90
2020-03-31 00:00:00 15 4 Norte 8 Nordeste 0 -- -- 88
2020-03-30 23:00:00 15.4 6 Nordeste 10 Nordeste 0 -- -- 86
2020-03-30 22:00:00 15.7 6 Nordeste 12 Norte 0 -- -- 84
2020-03-30 21:00:00 15.9 5 Nordeste 11 Nordeste 0 -- -- 87
2020-03-30 20:00:00 16.9 6 Nordeste 13 Nordeste 0 -- -- 81
2020-03-30 19:00:00 18.1 8 Este 18 Sur 0 -- -- 74
2020-03-30 18:00:00 18.9 9 Sudeste 18 Sur 0 -- -- 74
2020-03-30 17:00:00 17.7 8 Sudeste 21 Sudeste 0 -- -- 76
2020-03-30 16:00:00 16.6 14 Sur 27 Sur 0 -- -- 81
2020-03-30 15:00:00 17.6 21 Sudoeste 33 Sur 0 -- -- 77
2020-03-30 14:00:00 18.8 21 Sudoeste 31 Sur 0 -- -- 73
2020-03-30 13:00:00 18.9 18 Sudoeste 27 Sudoeste 0 -- -- 73
2020-03-30 12:00:00 18.2 15 Sur 24 Sur 0 -- -- 75
2020-03-30 11:00:00 17.9 14 Sur 24 Sur 0 -- -- 74
2020-03-30 10:00:00 15.3 12 Sur 20 Sur 0 -- -- 83
2020-03-30 09:00:00 13.7 7 Sudoeste 12 Sudoeste 0 -- -- 84
2020-03-30 08:00:00 11.6 8 Oeste 13 Oeste 0 -- -- 85
2020-03-30 07:00:00 11.7 8 Oeste 13 Noroeste 0 -- -- 85
2020-03-30 06:00:00 12.2 7 Noroeste 13 Noroeste 0 -- -- 84
2020-03-30 05:00:00 12.3 10 Noroeste 13 Noroeste 0 -- -- 84
2020-03-30 04:00:00 12.5 6 Noroeste 10 Noroeste 0 -- -- 85
2020-03-30 03:00:00 12.8 8 Noroeste 13 Oeste 0 -- -- 85
2020-03-30 02:00:00 13 7 Noroeste 12 Noroeste 0 -- -- 85
2020-03-30 01:00:00 13 10 Noroeste 13 Noroeste 0 -- -- 84
2020-03-30 00:00:00 13.3 9 Noroeste 12 Noroeste 0 -- -- 84
2020-03-29 23:00:00 13.7 6 Noroeste 10 Norte 0 -- -- 86
2020-03-29 22:00:00 14.4 0 Calma 4 Nordeste 0 -- -- 87
2020-03-29 21:00:00 14.8 0 Calma 6 Este 0 -- -- 83
2020-03-29 20:00:00 16.4 3 Sudeste 18 Sur 0 -- -- 74
2020-03-29 19:00:00 17.3 10 Sur 25 Sudoeste 0 -- -- 72
2020-03-29 18:00:00 17 9 Sudoeste 20 Sudoeste 0 -- -- 73
2020-03-29 17:00:00 16.3 11 Sur 19 Sur 0 -- -- 79
2020-03-29 16:00:00 15.9 9 Sur 21 Sur 0 -- -- 80
2020-03-29 15:00:00 15.6 13 Sur 22 Sudoeste 0 -- -- 82
2020-03-29 14:00:00 15.9 13 Sudoeste 24 Sur 0 -- -- 78
2020-03-29 13:00:00 16.6 9 Sur 16 Sudeste 0 -- -- 77
2020-03-29 12:00:00 17.4 8 Sudeste 13 Sudeste 0 -- -- 82
2020-03-29 11:00:00 15.2 4 Este 8 Este 0 -- -- 84
2020-03-29 10:00:00 15.6 4 Sudeste 7 Sudeste 0 -- -- 83
2020-03-29 09:00:00 13.2 5 Oeste 11 Oeste 0 -- -- 86
2020-03-29 08:00:00 12.7 8 Oeste 14 Oeste 0 -- -- 87
2020-03-29 07:00:00 12.4 6 Oeste 10 Noroeste 0 -- -- 86
2020-03-29 06:00:00 12.2 8 Noroeste 12 Noroeste 0 -- -- 87
2020-03-29 05:00:00 12.2 6 Noroeste 12 Noroeste 0 -- -- 87
2020-03-29 04:00:00 12.7 7 Oeste 12 Oeste 0 -- -- 89
2020-03-29 00:00:00 13.4 6 Noroeste 13 Noroeste 0 -- -- 90
2020-03-28 23:00:00 13.2 9 Noroeste 14 Oeste 0.2 -- -- 92
2020-03-28 22:00:00 13.2 8 Noroeste 12 Noroeste 0.2 -- -- 94
2020-03-28 21:00:00 13.2 5 Norte 9 Noroeste 0.6 -- -- 95
2020-03-28 20:00:00 13.3 6 Noroeste 9 Noroeste 0.2 -- -- 95
2020-03-28 19:00:00 13.6 4 Noroeste 7 Noroeste 0.2 -- -- 94
2020-03-28 18:00:00 13.6 4 Noroeste 10 Noroeste 1.2 -- -- 94
2020-03-28 17:00:00 14 3 Norte 14 Nordeste 1 -- -- 92
2020-03-28 16:00:00 14.9 9 Nordeste 19 Nordeste 0 -- -- 85
2020-03-28 15:00:00 14.6 7 Norte 20 Este 0.2 -- -- 89
2020-03-28 14:00:00 15.4 10 Este 22 Nordeste 0 -- -- 81
2020-03-28 13:00:00 16.1 13 Este 28 Este 0 -- -- 77
2020-03-28 12:00:00 16.9 12 Este 22 Este 0 -- -- 70
2020-03-28 11:00:00 15.9 10 Este 19 Sudeste 0 -- -- 73
2020-03-28 10:00:00 18.4 6 Sudeste 13 Sudeste 0 -- -- 67
2020-03-28 09:00:00 16.7 5 Sudeste 8 Sudeste 0 -- -- 69
2020-03-28 08:00:00 13.4 4 Norte 15 Noroeste 0 -- -- 75
2020-03-28 07:00:00 12.2 10 Noroeste 16 Noroeste 0 -- -- 76
2020-03-28 06:00:00 12.9 6 Noroeste 13 Oeste 0.2 -- -- 77
2020-03-28 05:00:00 13.4 10 Oeste 16 Oeste 0 -- -- 73
2020-03-28 04:00:00 13 10 Oeste 14 Oeste 0 -- -- 74
2020-03-28 03:00:00 13 10 Oeste 22 Oeste 0 -- -- 76
2020-03-28 02:00:00 12.9 14 Oeste 18 Oeste 0 -- -- 79
2020-03-28 01:00:00 12.7 4 Noroeste 14 Oeste 0 -- -- 81
2020-03-28 00:00:00 13.6 3 Noroeste 7 Norte 0 -- -- 85
2020-03-27 23:00:00 14.1 0 Calma 12 Noroeste 0 -- -- 78
2020-03-27 22:00:00 14 7 Noroeste 11 Oeste 0 -- -- 83
2020-03-27 21:00:00 14.2 3 Oeste 5 Oeste 0 -- -- 91
2020-03-27 20:00:00 14.5 3 Nordeste 12 Norte 0 -- -- 90
2020-03-27 19:00:00 15 9 Nordeste 13 Este 0 -- -- 87
2020-03-27 18:00:00 15.6 5 Nordeste 17 Este 0 -- -- 85
2020-03-27 17:00:00 16 9 Nordeste 16 Este 0 -- -- 85
2020-03-27 16:00:00 16 9 Este 17 Este 0 -- -- 85
2020-03-27 15:00:00 16.8 7 Este 13 Este 0 -- -- 85
2020-03-27 14:00:00 15.5 7 Nordeste 15 Nordeste 6.2 -- -- 94
2020-03-27 13:00:00 14.3 9 Nordeste 20 Sudeste 1 -- -- 92
2020-03-27 12:00:00 15.9 11 Sudeste 25 Sudeste 0.2 -- -- 82
2020-03-27 11:00:00 16.7 13 Sur 20 Sur 0 -- -- 79
2020-03-27 10:00:00 16.8 12 Sur 17 Sur 0 -- -- 74
2020-03-27 09:00:00 15.1 9 Sur 18 Sudoeste 0 -- -- 81
2020-03-27 08:00:00 13.1 12 Oeste 20 Oeste 0 -- -- 80
2020-03-27 07:00:00 12.1 12 Oeste 15 Oeste 0 -- -- 83
2020-03-27 06:00:00 12.6 6 Oeste 13 Sudoeste 0 -- -- 82
2020-03-27 05:00:00 12.4 10 Oeste 15 Oeste 0 -- -- 81
2020-03-27 04:00:00 12.4 9 Oeste 20 Oeste 0 -- -- 83
2020-03-27 03:00:00 12 10 Oeste 13 Oeste 0 -- -- 84
2020-03-27 02:00:00 12.2 9 Oeste 14 Noroeste 0 -- -- 85
2020-03-27 01:00:00 11.9 11 Noroeste 15 Noroeste 0 -- -- 84
2020-03-27 00:00:00 12.4 7 Noroeste 13 Noroeste 0 -- -- 86
2020-03-26 23:00:00 12.7 7 Noroeste 11 Oeste 0 -- -- 88
2020-03-26 22:00:00 13.3 5 Noroeste 8 Noroeste 0.2 -- -- 90
2020-03-26 21:00:00 13.5 4 Noroeste 6 Noroeste 0 -- -- 90
2020-03-26 20:00:00 13.6 3 Norte 5 Norte 0.4 -- -- 90
2020-03-26 19:00:00 14.1 3 Noroeste 10 Este 2.6 -- -- 89
2020-03-26 18:00:00 15.3 5 Este 14 Nordeste 0 -- -- 76
2020-03-26 17:00:00 15.8 9 Este 14 Este 0 -- -- 73
2020-03-26 16:00:00 16.4 5 Este 12 Este 0 -- -- 69
2020-03-26 15:00:00 15.5 6 Noroeste 11 Noroeste 0 -- -- 71
2020-03-26 14:00:00 15.2 8 Sudoeste 14 Sudeste 0 -- -- 70
2020-03-26 13:00:00 16.1 11 Este 23 Este 0 -- -- 64
2020-03-26 12:00:00 16.9 11 Nordeste 22 Este 0 -- -- 68
2020-03-26 11:00:00 18 10 Este 22 Este 0 -- -- 63
2020-03-26 10:00:00 17.6 10 Este 19 Nordeste 0 -- -- 63
2020-03-26 09:00:00 15.7 7 Nordeste 13 Nordeste 0 -- -- 66
2020-03-26 08:00:00 13 4 Noroeste 10 Oeste 0 -- -- 79
2020-03-26 07:00:00 12.4 6 Noroeste 10 Noroeste 0 -- -- 82
2020-03-26 06:00:00 12.6 4 Norte 12 Nordeste 0 -- -- 86
2020-03-26 05:00:00 12.8 4 Norte 9 Norte 0 -- -- 80
2020-03-26 04:00:00 12.9 4 Norte 10 Nordeste 0 -- -- 80
2020-03-26 03:00:00 12.9 6 Norte 9 Norte 0 -- -- 79
2020-03-26 02:00:00 13 6 Norte 19 Nordeste 0 -- -- 82
2020-03-26 01:00:00 12.9 8 Nordeste 14 Norte 0 -- -- 81
2020-03-26 00:00:00 12.9 8 Norte 12 Norte 0 -- -- 81
2020-03-25 23:00:00 13.2 7 Norte 11 Norte 0 -- -- 83
2020-03-25 22:00:00 13.2 5 Noroeste 10 Noroeste 0 -- -- 84
2020-03-25 21:00:00 13 5 Noroeste 11 Norte 0 -- -- 85
2020-03-25 20:00:00 12.9 7 Noroeste 15 Noroeste 0.2 -- -- 87
2020-03-25 19:00:00 13 9 Noroeste 13 Oeste 0.2 -- -- 88
2020-03-25 18:00:00 13.6 4 Noroeste 15 Noroeste 2.8 -- -- 88
2020-03-25 17:00:00 14.9 5 Norte 18 Este 0 -- -- 83
2020-03-25 16:00:00 16.3 9 Nordeste 23 Este 0 -- -- 71
2020-03-25 15:00:00 16.9 13 Este 25 Este 0 -- -- 67
2020-03-25 14:00:00 17.5 15 Este 26 Nordeste 0 -- -- 65
2020-03-25 13:00:00 17.7 15 Este 27 Este 0 -- -- 66
2020-03-25 12:00:00 18.4 15 Nordeste 27 Este 0 -- -- 62
2020-03-25 11:00:00 18.4 16 Este 24 Este 0 -- -- 61
2020-03-25 10:00:00 16.9 11 Nordeste 22 Este 0 -- -- 62
2020-03-25 09:00:00 15.2 8 Nordeste 13 Nordeste 0 -- -- 66
2020-03-25 08:00:00 13.9 7 Norte 13 Norte 0 -- -- 71
2020-03-25 07:00:00 13.5 8 Nordeste 13 Nordeste 0 -- -- 79
2020-03-25 06:00:00 13.2 6 Noroeste 13 Noroeste 0 -- -- 75
2020-03-25 05:00:00 12.8 8 Noroeste 12 Norte 0 -- -- 77
2020-03-25 04:00:00 13 8 Norte 13 Sudoeste 0 -- -- 79
2020-03-25 03:00:00 13.5 5 Oeste 12 Noroeste 0 -- -- 74
2020-03-25 02:00:00 13.2 9 Noroeste 13 Noroeste 0 -- -- 76
2020-03-25 01:00:00 13.4 5 Noroeste 15 Oeste 0 -- -- 72
2020-03-25 00:00:00 13.6 6 Oeste 11 Oeste 0 -- -- 82
2020-03-24 23:00:00 14.4 6 Oeste 9 Nordeste 0 -- -- 81
2020-03-24 22:00:00 15.2 6 Nordeste 15 Noroeste 0 -- -- 74
2020-03-24 21:00:00 15.3 10 Noroeste 20 Oeste 0 -- -- 73
2020-03-24 20:00:00 15.5 10 Sudoeste 17 Sudoeste 0 -- -- 80
2020-03-24 19:00:00 15.9 5 Sudoeste 12 Este 0 -- -- 75
2020-03-24 18:00:00 16.5 10 Sudeste 23 Sudeste 0 -- -- 75
2020-03-24 17:00:00 18.1 13 Sudeste 26 Sudeste 0 -- -- 67
2020-03-24 16:00:00 18.3 18 Sur 32 Sur 0 -- -- 64
2020-03-24 15:00:00 17.6 19 Sudoeste 33 Sudoeste 0 -- -- 68
2020-03-24 14:00:00 18.5 19 Sur 39 Sudoeste 0 -- -- 62
2020-03-24 13:00:00 18.4 22 Sudoeste 36 Sudoeste 0 -- -- 59
2020-03-24 12:00:00 19.6 13 Sur 29 Sudeste 0 -- -- 58
2020-03-24 11:00:00 19.6 14 Sudeste 28 Sudeste 0 -- -- 61
2020-03-24 10:00:00 19.2 6 Este 16 Este 0 -- -- 52
2020-03-24 09:00:00 17.3 4 Este 11 Oeste 0 -- -- 57
2020-03-24 08:00:00 13.7 3 Oeste 14 Noroeste 0 -- -- 68
2020-03-24 07:00:00 13.2 8 Noroeste 14 Noroeste 0 -- -- 68
2020-03-24 06:00:00 13.5 2 Oeste 8 Noroeste 0 -- -- 67
2020-03-24 05:00:00 13.9 7 Oeste 24 Oeste 0 -- -- 66
2020-03-24 04:00:00 13.5 10 Sudoeste 17 Sudoeste 0 -- -- 69
2020-03-24 03:00:00 13.3 5 Sudoeste 13 Oeste 0 -- -- 70
2020-03-24 02:00:00 13.6 8 Oeste 15 Oeste 0 -- -- 71
2020-03-24 01:00:00 13.4 9 Oeste 12 Oeste 0 -- -- 72
2020-03-24 00:00:00 13.5 2 Oeste 16 Noroeste 0 -- -- 74
2020-03-23 23:00:00 13.7 5 Norte 14 Noroeste 0 -- -- 74
2020-03-23 22:00:00 13.4 7 Nordeste 14 Nordeste 0 -- -- 75
2020-03-23 21:00:00 14.4 9 Sudoeste 15 Sudoeste 0 -- -- 73
2020-03-23 20:00:00 14.5 5 Nordeste 36 Sudoeste 0 -- -- 70
2020-03-23 19:00:00 15.5 26 Sudoeste 41 Sudoeste 0 -- -- 69
2020-03-23 18:00:00 17.1 16 Sur 32 Sur 0 -- -- 59
2020-03-23 17:00:00 18.5 20 Este 39 Este 0 -- -- 51
2020-03-23 16:00:00 20.7 13 Noroeste 28 Oeste 0 -- -- 47
2020-03-23 15:00:00 18.5 17 Sudoeste 30 Oeste 0 -- -- 55
2020-03-23 14:00:00 18.9 13 Este 31 Este 0 -- -- 53
2020-03-23 13:00:00 17.9 22 Sur 45 Sudoeste 0 -- -- 55
2020-03-23 12:00:00 18.4 24 Sudoeste 45 Nordeste 0 -- -- 56
2020-03-23 11:00:00 17.3 26 Nordeste 50 Nordeste 0.2 -- -- 49
2020-03-23 10:00:00 14 8 Este 27 Oeste 0 -- -- 72
2020-03-23 09:00:00 12.1 13 Oeste 21 Oeste 0.2 -- -- 76
2020-03-23 08:00:00 11.3 16 Oeste 30 Oeste 0.8 -- -- 82
2020-03-23 07:00:00 11.9 8 Sudoeste 60 Oeste 0.6 -- -- 79
2020-03-23 06:00:00 12 24 Oeste 51 Oeste 1 -- -- 69
2020-03-23 05:00:00 12.5 12 Noroeste 42 Oeste 0.2 -- -- 59
2020-03-23 04:00:00 12.4 9 Oeste 31 Sudoeste 0.4 -- -- 81
2020-03-23 03:00:00 13 19 Sudoeste 29 Sudoeste 0.8 -- -- 84
2020-03-23 02:00:00 13.2 11 Oeste 30 Este 0.2 -- -- 82
2020-03-23 01:00:00 13.3 11 Oeste 23 Oeste 0 -- -- 81
2020-03-23 00:00:00 13.3 5 Sudoeste 27 Sudoeste 0 -- -- 79
2020-03-22 23:00:00 13.4 12 Sudoeste 21 Sudoeste 0 -- -- 78
2020-03-22 22:00:00 13.4 11 Sudoeste 23 Oeste 0 -- -- 72
2020-03-22 21:00:00 14.4 6 Oeste 18 Oeste 0 -- -- 61
2020-03-22 20:00:00 14.5 15 Oeste 20 Oeste 0 -- -- 62
2020-03-22 19:00:00 15.1 4 Oeste 16 Nordeste 0 -- -- 69
2020-03-22 18:00:00 15.9 10 Nordeste 26 Nordeste 0 -- -- 69
2020-03-22 17:00:00 17 13 Este 20 Este 0 -- -- 67
2020-03-22 16:00:00 17.2 11 Nordeste 19 Nordeste 0 -- -- 67
2020-03-22 15:00:00 16.8 11 Sudeste 21 Sur 0 -- -- 67
2020-03-22 14:00:00 16.5 11 Sur 25 Sur 0 -- -- 66
2020-03-22 13:00:00 17.6 15 Sur 25 Sur 0 -- -- 61
2020-03-22 12:00:00 16.4 14 Sur 24 Sudoeste 0 -- -- 67
2020-03-22 11:00:00 15.8 15 Sur 28 Sur 0 -- -- 68
2020-03-22 10:00:00 15.3 14 Sur 22 Sur 0 -- -- 68
2020-03-22 09:00:00 15.8 11 Sudoeste 25 Sudoeste 0 -- -- 65
2020-03-22 08:00:00 14.1 11 Oeste 24 Oeste 0 -- -- 69
2020-03-22 07:00:00 12.5 19 Oeste 27 Oeste 0 -- -- 68
2020-03-22 06:00:00 12.1 13 Oeste 18 Oeste 0 -- -- 64
2020-03-22 05:00:00 12 7 Noroeste 10 Noroeste 0 -- -- 66
2020-03-22 04:00:00 12.6 5 Oeste 9 Oeste 0 -- -- 66
2020-03-22 03:00:00 12.8 5 Noroeste 8 Noroeste 0 -- -- 69
2020-03-22 02:00:00 13.2 0 Calma 11 Sudoeste 0 -- -- 64
2020-03-22 01:00:00 13.6 5 Oeste 18 Sudoeste 0 -- -- 64
2020-03-22 00:00:00 13.5 13 Oeste 18 Oeste 0 -- -- 70
2020-03-21 23:00:00 12.8 6 Noroeste 13 Oeste 0 -- -- 69
2020-03-21 22:00:00 13.5 11 Oeste 18 Oeste 0 -- -- 72
2020-03-21 21:00:00 13.6 12 Oeste 25 Sudoeste 0 -- -- 70
2020-03-21 20:00:00 14 15 Oeste 22 Sudoeste 0 -- -- 69
2020-03-21 19:00:00 14.8 12 Sudoeste 21 Sur 0 -- -- 67
2020-03-21 18:00:00 15.3 12 Sudeste 21 Este 0 -- -- 64
2020-03-21 17:00:00 16.1 7 Este 26 Este 0 -- -- 64
2020-03-21 16:00:00 16.2 15 Este 30 Este 0 -- -- 63
2020-03-21 15:00:00 16.7 15 Este 30 Nordeste 0 -- -- 59
2020-03-21 14:00:00 17 20 Nordeste 34 Nordeste 0 -- -- 56
2020-03-21 13:00:00 18.2 22 Este 47 Nordeste 0 -- -- 51
2020-03-21 12:00:00 18.8 24 Este 54 Nordeste 0 -- -- 48
2020-03-21 11:00:00 17.6 21 Nordeste 34 Este 0 -- -- 53
2020-03-21 10:00:00 15.2 21 Este 35 Nordeste 0 -- -- 63
2020-03-21 09:00:00 15.7 17 Nordeste 29 Nordeste 0 -- -- 57
2020-03-21 08:00:00 13.3 18 Nordeste 31 Nordeste 0 -- -- 64
2020-03-21 07:00:00 13 19 Nordeste 30 Nordeste 0 -- -- 68
2020-03-21 06:00:00 13 16 Nordeste 27 Nordeste 0 -- -- 70
2020-03-21 05:00:00 13 13 Nordeste 26 Nordeste 0 -- -- 71
2020-03-21 04:00:00 13.3 14 Nordeste 22 Nordeste 0 -- -- 73
2020-03-21 03:00:00 13.3 5 Nordeste 23 Nordeste 0 -- -- 77
2020-03-21 02:00:00 13.6 14 Nordeste 26 Nordeste 0 -- -- 76
2020-03-21 01:00:00 14.1 7 Nordeste 23 Nordeste 0 -- -- 81
2020-03-21 00:00:00 14.1 12 Nordeste 23 Nordeste 0 -- -- 82
2020-03-20 23:00:00 14.1 13 Nordeste 21 Nordeste 0 -- -- 87
2020-03-20 22:00:00 14.3 5 Este 14 Nordeste 0 -- -- 86
2020-03-20 21:00:00 14.3 8 Nordeste 15 Nordeste 0 -- -- 86
2020-03-20 20:00:00 14.3 12 Nordeste 20 Nordeste 0 -- -- 88
2020-03-20 19:00:00 14.8 8 Nordeste 23 Nordeste 0 -- -- 84
2020-03-20 18:00:00 16.1 15 Nordeste 28 Nordeste 0 -- -- 74
2020-03-20 17:00:00 17.9 13 Este 24 Este 0 -- -- 65
2020-03-20 16:00:00 18.9 18 Este 36 Nordeste 0 -- -- 59
2020-03-20 15:00:00 20.1 21 Este 41 Este 0 -- -- 52
2020-03-20 14:00:00 20.5 25 Este 41 Este 0 -- -- 45
2020-03-20 13:00:00 21.6 23 Este 40 Este 0 -- -- 45
2020-03-20 12:00:00 21.4 12 Este 25 Sudeste 0 -- -- 49
2020-03-20 11:00:00 19.7 10 Sudeste 21 Sudeste 0 -- -- 57
2020-03-20 10:00:00 19 8 Sudeste 18 Sudeste 0 -- -- 61
2020-03-20 09:00:00 16.5 10 Sudoeste 21 Sudoeste 0 -- -- 65
2020-03-20 08:00:00 14.3 7 Oeste 11 Noroeste 0 -- -- 74
2020-03-20 07:00:00 13.2 8 Noroeste 12 Noroeste 0 -- -- 70
2020-03-20 06:00:00 13.2 8 Noroeste 13 Norte 0 -- -- 69
2020-03-20 05:00:00 13.2 8 Noroeste 18 Sudoeste 0 -- -- 65
2020-03-20 04:00:00 13.9 13 Oeste 17 Oeste 0 -- -- 69
2020-03-20 03:00:00 13.6 6 Noroeste 14 Noroeste 0 -- -- 70
2020-03-20 02:00:00 13.7 8 Noroeste 14 Oeste 0 -- -- 69
2020-03-20 01:00:00 14.2 9 Sudoeste 13 Oeste 0 -- -- 73
2020-03-20 00:00:00 14.7 9 Oeste 18 Oeste 0 -- -- 69
2020-03-19 23:00:00 14.5 7 Noroeste 12 Oeste 0 -- -- 74
2020-03-19 22:00:00 15.2 8 Noroeste 17 Oeste 0 -- -- 70
2020-03-19 21:00:00 15.8 10 Oeste 15 Oeste 0 -- -- 68
2020-03-19 20:00:00 16.7 6 Sudoeste 18 Sudoeste 0 -- -- 66
2020-03-19 19:00:00 17.6 7 Este 16 Sudeste 0 -- -- 63
2020-03-19 18:00:00 18.3 5 Nordeste 34 Nordeste 0 -- -- 63
2020-03-19 17:00:00 19.2 19 Nordeste 38 Nordeste 0 -- -- 57
2020-03-19 16:00:00 19.7 3 Sudeste 37 Este 0 -- -- 61
2020-03-19 15:00:00 21.2 18 Este 34 Este 0 -- -- 58
2020-03-19 14:00:00 22.5 13 Sur 25 Sur 0 -- -- 44
2020-03-19 13:00:00 22.3 14 Sudeste 31 Sudeste 0 -- -- 43
2020-03-19 12:00:00 21.7 13 Sur 27 Sur 0 -- -- 44
2020-03-19 11:00:00 20.8 12 Sur 23 Sur 0 -- -- 46
2020-03-19 10:00:00 19.9 13 Sudeste 24 Sudeste 0 -- -- 48
2020-03-19 09:00:00 17.2 5 Sudoeste 17 Sudoeste 0 -- -- 54
2020-03-19 08:00:00 14.2 12 Oeste 20 Oeste 0 -- -- 63
2020-03-19 07:00:00 12.4 10 Oeste 15 Noroeste 0 -- -- 69
2020-03-19 06:00:00 12.9 11 Noroeste 20 Oeste 0 -- -- 66
2020-03-19 05:00:00 12.6 5 Oeste 15 Oeste 0 -- -- 66
2020-03-19 04:00:00 13.1 8 Oeste 24 Oeste 0 -- -- 63
2020-03-19 03:00:00 13.5 14 Sudoeste 25 Oeste 0 -- -- 65
2020-03-19 02:00:00 13.3 13 Oeste 18 Sudoeste 0 -- -- 65
2020-03-19 01:00:00 13.2 12 Noroeste 20 Oeste 0 -- -- 69
2020-03-19 00:00:00 13.1 14 Oeste 18 Sudoeste 0 -- -- 71
2020-03-18 23:00:00 13.3 10 Noroeste 14 Oeste 0 -- -- 69
2020-03-18 22:00:00 13.5 6 Noroeste 14 Noroeste 0 -- -- 70
2020-03-18 21:00:00 13.9 7 Noroeste 24 Sudoeste 0 -- -- 70
2020-03-18 20:00:00 15 16 Sudoeste 24 Sudoeste 0 -- -- 68
2020-03-18 19:00:00 16 17 Sudoeste 26 Sudoeste 0 -- -- 64
2020-03-18 18:00:00 17.5 18 Sudoeste 31 Sudoeste 0 -- -- 57
2020-03-18 17:00:00 17.9 15 Sudoeste 29 Sudoeste 0 -- -- 57
2020-03-18 16:00:00 17.6 14 Sudoeste 29 Sudoeste 0 -- -- 58
2020-03-18 15:00:00 18.5 15 Sur 27 Sur 0 -- -- 57
2020-03-18 14:00:00 19.6 13 Sur 34 Sur 0 -- -- 51
2020-03-18 13:00:00 19 15 Sur 28 Sur 0 -- -- 51
2020-03-18 12:00:00 18.7 10 Oeste 26 Sudoeste 0 -- -- 51
2020-03-18 11:00:00 18.1 7 Sudeste 18 Sudeste 0 -- -- 55
2020-03-18 10:00:00 17.7 8 Este 16 Este 0 -- -- 60
2020-03-18 09:00:00 14.7 6 Sudoeste 13 Sudoeste 0 -- -- 71
2020-03-18 08:00:00 12.3 6 Oeste 12 Oeste 0 -- -- 77
2020-03-18 07:00:00 11.1 7 Oeste 14 Oeste 0 -- -- 75
2020-03-18 06:00:00 11.6 9 Noroeste 14 Noroeste 0 -- -- 73
2020-03-18 05:00:00 11.6 11 Noroeste 14 Noroeste 0 -- -- 74
2020-03-18 04:00:00 11.4 9 Noroeste 13 Oeste 0 -- -- 76
2020-03-18 03:00:00 11.3 5 Noroeste 10 Oeste 0 -- -- 76
2020-03-18 02:00:00 12.2 9 Oeste 15 Oeste 0 -- -- 75
2020-03-18 01:00:00 12.6 6 Oeste 14 Oeste 0 -- -- 77
2020-03-18 00:00:00 12.4 10 Oeste 15 Oeste 0 -- -- 76
2020-03-17 23:00:00 12.9 8 Oeste 12 Oeste 0 -- -- 79
2020-03-17 22:00:00 12.5 6 Oeste 12 Oeste 0 -- -- 80
2020-03-17 21:00:00 13.1 5 Oeste 11 Oeste 0 -- -- 78
2020-03-17 20:00:00 13.7 11 Nordeste 24 Este 0 -- -- 77
2020-03-17 19:00:00 14.4 8 Este 32 Este 0 -- -- 73
2020-03-17 18:00:00 14.4 19 Nordeste 34 Nordeste 0 -- -- 74
2020-03-17 17:00:00 14.9 19 Nordeste 41 Este 0 -- -- 75
2020-03-17 16:00:00 15.9 22 Nordeste 42 Nordeste 0 -- -- 70
2020-03-17 15:00:00 15.1 26 Nordeste 42 Nordeste 0 -- -- 75
2020-03-17 14:00:00 15.2 25 Nordeste 43 Nordeste 0 -- -- 73
2020-03-17 13:00:00 16.9 30 Nordeste 56 Este 0 -- -- 64
2020-03-17 12:00:00 17.4 29 Nordeste 50 Nordeste 0 -- -- 62
2020-03-17 11:00:00 16.9 33 Nordeste 51 Nordeste 0 -- -- 54
2020-03-17 10:00:00 16.7 28 Nordeste 47 Nordeste 0 -- -- 57
2020-03-17 09:00:00 14.9 23 Nordeste 37 Nordeste 0 -- -- 64
2020-03-17 08:00:00 12.9 21 Nordeste 35 Nordeste 0 -- -- 75
2020-03-17 07:00:00 11.9 17 Nordeste 35 Nordeste 0 -- -- 78
2020-03-17 06:00:00 11.9 16 Nordeste 38 Nordeste 0 -- -- 79
2020-03-17 05:00:00 11.9 18 Nordeste 35 Nordeste 0 -- -- 78
2020-03-17 04:00:00 11.9 14 Nordeste 38 Norte 0 -- -- 76
2020-03-17 03:00:00 12.4 19 Nordeste 35 Nordeste 0 -- -- 70
2020-03-17 02:00:00 12.4 22 Nordeste 38 Nordeste 0 -- -- 77
2020-03-17 01:00:00 12.7 21 Nordeste 38 Nordeste 0 -- -- 81
2020-03-17 00:00:00 13 13 Nordeste 22 Nordeste 0 -- -- 71
2020-03-16 23:00:00 13.1 4 Norte 24 Nordeste 0 -- -- 75
2020-03-16 22:00:00 14 12 Nordeste 26 Nordeste 0 -- -- 75
2020-03-16 21:00:00 13.9 10 Nordeste 28 Nordeste 0 -- -- 76
2020-03-16 20:00:00 14 14 Nordeste 39 Nordeste 0 -- -- 78
2020-03-16 19:00:00 14.3 19 Nordeste 43 Nordeste 0 -- -- 86
2020-03-16 18:00:00 16 22 Nordeste 44 Nordeste 0 -- -- 75
2020-03-16 17:00:00 17.3 29 Nordeste 53 Nordeste 0 -- -- 69
2020-03-16 16:00:00 18.9 30 Nordeste 55 Este 0 -- -- 59
2020-03-16 15:00:00 19.5 28 Este 54 Este 0 -- -- 60
2020-03-16 14:00:00 19.4 36 Nordeste 64 Este 0 -- -- 53
2020-03-16 13:00:00 19.9 28 Este 62 Nordeste 0 -- -- 54
2020-03-16 12:00:00 19 38 Nordeste 66 Nordeste 0 -- -- 49
2020-03-16 11:00:00 18.5 34 Nordeste 60 Este 0 -- -- 48
2020-03-16 10:00:00 17.6 30 Nordeste 54 Norte 0 -- -- 54
2020-03-16 09:00:00 16.3 23 Nordeste 35 Nordeste 0 -- -- 56
2020-03-16 08:00:00 13.5 4 Nordeste 21 Noroeste 0 -- -- 69
2020-03-16 07:00:00 12.2 7 Noroeste 21 Noroeste 0 -- -- 74
2020-03-16 06:00:00 12.3 7 Oeste 19 Oeste 0 -- -- 78
2020-03-16 05:00:00 12.5 10 Noroeste 18 Nordeste 0 -- -- 78
2020-03-16 04:00:00 13.3 4 Noroeste 13 Nordeste 0 -- -- 77
2020-03-16 03:00:00 13.2 4 Noroeste 11 Oeste 0 -- -- 75
2020-03-16 02:00:00 13.5 6 Nordeste 19 Nordeste 0 -- -- 74
2020-03-16 01:00:00 13.3 6 Oeste 15 Oeste 0 -- -- 67
2020-03-16 00:00:00 13.3 8 Noroeste 16 Oeste 0 -- -- 68
2020-03-15 23:00:00 13.6 9 Noroeste 14 Noroeste 0 -- -- 73
2020-03-15 22:00:00 13.5 7 Oeste 15 Oeste 0 -- -- 73
2020-03-15 21:00:00 13.9 5 Oeste 12 Sudoeste 0 -- -- 71
2020-03-15 20:00:00 13.8 6 Oeste 12 Este 0 -- -- 70
2020-03-15 19:00:00 15.1 12 Este 24 Este 0 -- -- 67
2020-03-15 18:00:00 16.9 16 Nordeste 29 Este 0 -- -- 57
2020-03-15 17:00:00 17.9 17 Nordeste 32 Nordeste 0 -- -- 55
2020-03-15 16:00:00 17 23 Nordeste 40 Este 0 -- -- 63
2020-03-15 15:00:00 17.4 18 Este 34 Este 0 -- -- 55
2020-03-15 14:00:00 16.5 23 Este 37 Nordeste 0 -- -- 69
2020-03-15 13:00:00 16.9 16 Nordeste 35 Nordeste 0 -- -- 64
2020-03-15 12:00:00 16.5 20 Nordeste 41 Este 0 -- -- 58
2020-03-15 11:00:00 17.7 11 Este 36 Este 0 -- -- 55
2020-03-15 10:00:00 18.4 15 Sudeste 33 Nordeste 0 -- -- 57
2020-03-15 09:00:00 16.5 8 Sudeste 14 Sudeste 0 -- -- 60
2020-03-15 08:00:00 13.1 4 Noroeste 15 Noroeste 0 -- -- 69
2020-03-15 07:00:00 11.6 11 Noroeste 18 Noroeste 0 -- -- 78
2020-03-15 06:00:00 11.6 11 Noroeste 15 Noroeste 0 -- -- 79
2020-03-15 05:00:00 11.8 6 Noroeste 14 Noroeste 0 -- -- 72
2020-03-15 04:00:00 11.9 3 Sudoeste 8 Sudoeste 0 -- -- 82
2020-03-15 03:00:00 13 5 Sudeste 14 Sudeste 0 -- -- 78
2020-03-15 02:00:00 14 4 Norte 11 Noroeste 0 -- -- 69
2020-03-15 01:00:00 14.1 7 Noroeste 14 Oeste 0 -- -- 71
2020-03-15 00:00:00 13.6 10 Oeste 20 Noroeste 0 -- -- 76
2020-03-14 23:00:00 13.5 15 Oeste 21 Oeste 0 -- -- 76
2020-03-14 22:00:00 14.1 13 Oeste 19 Oeste 0 -- -- 76
2020-03-14 21:00:00 14.6 3 Noroeste 18 Este 0 -- -- 76
2020-03-14 20:00:00 14.6 13 Este 27 Este 0 -- -- 75
2020-03-14 19:00:00 14.9 16 Nordeste 32 Nordeste 0 -- -- 70
2020-03-14 18:00:00 15.2 15 Nordeste 29 Este 0 -- -- 74
2020-03-14 17:00:00 15.4 16 Nordeste 30 Nordeste 0 -- -- 74
2020-03-14 16:00:00 15.1 16 Nordeste 30 Nordeste 0 -- -- 78
2020-03-14 15:00:00 14.8 17 Nordeste 33 Nordeste 0 -- -- 80
2020-03-14 14:00:00 14.9 20 Nordeste 38 Nordeste 0 -- -- 81
2020-03-14 13:00:00 15.9 26 Nordeste 42 Nordeste 0 -- -- 77
2020-03-14 12:00:00 17.2 26 Nordeste 48 Nordeste 0 -- -- 67
2020-03-14 11:00:00 17.9 27 Nordeste 47 Este 0 -- -- 66
2020-03-14 10:00:00 17.1 25 Nordeste 39 Nordeste 0 -- -- 61
2020-03-14 09:00:00 15.5 26 Nordeste 41 Nordeste 0 -- -- 71
2020-03-14 08:00:00 13.7 17 Nordeste 30 Nordeste 0 -- -- 76
2020-03-14 07:00:00 13.1 13 Nordeste 26 Norte 0 -- -- 79
2020-03-14 06:00:00 13.1 13 Nordeste 24 Nordeste 0 -- -- 80
2020-03-14 05:00:00 13.1 12 Nordeste 23 Nordeste 0 -- -- 79
2020-03-14 04:00:00 13.4 12 Nordeste 26 Nordeste 0 -- -- 79
2020-03-14 03:00:00 13.5 17 Nordeste 28 Nordeste 0 -- -- 78
2020-03-14 02:00:00 13.5 13 Nordeste 29 Nordeste 0 -- -- 79
2020-03-14 01:00:00 13.9 15 Nordeste 32 Nordeste 0 -- -- 83
2020-03-14 00:00:00 14.4 21 Nordeste 35 Nordeste 0 -- -- 86
2020-03-13 23:00:00 14.6 21 Nordeste 35 Nordeste 0 -- -- 89
2020-03-13 22:00:00 14.8 22 Nordeste 34 Nordeste 0 -- -- 84
2020-03-13 21:00:00 14.9 15 Nordeste 31 Nordeste 0 -- -- 86
2020-03-13 20:00:00 15 22 Nordeste 34 Nordeste 0 -- -- 86
2020-03-13 19:00:00 15.2 20 Nordeste 37 Nordeste 0 -- -- 83
2020-03-13 18:00:00 16.3 24 Nordeste 39 Nordeste 0 -- -- 77
2020-03-13 17:00:00 17.1 24 Nordeste 35 Nordeste 0 -- -- 75
2020-03-13 16:00:00 18.2 21 Nordeste 35 Nordeste 0 -- -- 72
2020-03-13 15:00:00 18.1 22 Nordeste 37 Este 0 -- -- 72
2020-03-13 14:00:00 17.9 24 Nordeste 48 Este 0 -- -- 73
2020-03-13 13:00:00 18.3 28 Nordeste 42 Nordeste 0 -- -- 69
2020-03-13 12:00:00 19.2 26 Nordeste 40 Nordeste 0 -- -- 70
2020-03-13 11:00:00 18.4 24 Nordeste 41 Nordeste 0 -- -- 70
2020-03-13 10:00:00 17.1 23 Nordeste 37 Nordeste 0 -- -- 75
2020-03-13 09:00:00 15.9 22 Nordeste 31 Nordeste 0 -- -- 78
2020-03-13 08:00:00 13.7 14 Nordeste 24 Nordeste 0 -- -- 90
2020-03-13 07:00:00 13.3 13 Nordeste 22 Nordeste 0 -- -- 90
2020-03-13 06:00:00 13.9 17 Nordeste 29 Nordeste 0 -- -- 90
2020-03-13 05:00:00 14.3 18 Nordeste 33 Nordeste 0 -- -- 91
2020-03-13 04:00:00 14.3 17 Nordeste 28 Nordeste 0 -- -- 93
2020-03-13 03:00:00 14.5 12 Nordeste 20 Nordeste 0 -- -- 93
2020-03-13 02:00:00 14.5 12 Norte 19 Nordeste 0 -- -- 92
2020-03-13 01:00:00 14.7 10 Norte 19 Norte 0 -- -- 93
2020-03-13 00:00:00 14.9 8 Nordeste 17 Nordeste 0 -- -- 92
2020-03-12 23:00:00 15.1 7 Nordeste 18 Norte 0 -- -- 91
2020-03-12 22:00:00 15.2 10 Nordeste 18 Nordeste 0 -- -- 92
2020-03-12 21:00:00 15.5 10 Nordeste 15 Nordeste 0 -- -- 92
2020-03-12 20:00:00 16.2 12 Nordeste 18 Nordeste 0 -- -- 90
2020-03-12 19:00:00 16.9 10 Nordeste 18 Nordeste 0 -- -- 89
2020-03-12 18:00:00 18.1 11 Nordeste 19 Este 0 -- -- 83
2020-03-12 17:00:00 20.9 11 Nordeste 17 Nordeste 0 -- -- 71
2020-03-12 16:00:00 22.1 11 Nordeste 19 Este 0 -- -- 67
2020-03-12 15:00:00 23.9 13 Este 21 Este 0 -- -- 60
2020-03-12 14:00:00 22.5 17 Este 24 Este 0 -- -- 65
2020-03-12 13:00:00 23.3 15 Nordeste 22 Nordeste 0 -- -- 59
2020-03-12 12:00:00 25.3 10 Este 15 Este 0 -- -- 52
2020-03-12 11:00:00 24.5 8 Este 17 Este 0 -- -- 49
2020-03-12 10:00:00 23 4 Nordeste 10 Este 0 -- -- 54
2020-03-12 09:00:00 21.8 5 Norte 17 Norte 0 -- -- 36
2020-03-12 08:00:00 20.9 9 Norte 22 Norte 0 -- -- 13
2020-03-12 07:00:00 19.3 11 Norte 20 Norte 0 -- -- 14
2020-03-12 06:00:00 18.5 11 Norte 19 Nordeste 0 -- -- 16
2020-03-12 05:00:00 13.6 6 Norte 10 Noroeste 0 -- -- 56
2020-03-12 04:00:00 13.8 5 Norte 15 Nordeste 0 -- -- 91
2020-03-12 03:00:00 14.6 9 Nordeste 16 Nordeste 0 -- -- 92
2020-03-12 02:00:00 15.5 6 Norte 17 Noroeste 0 -- -- 60
2020-03-12 01:00:00 21.6 14 Noroeste 23 Noroeste 0 -- -- 12
2020-03-12 00:00:00 20.6 14 Noroeste 17 Noroeste 0 -- -- 12
2020-03-11 23:00:00 17.5 0 Calma 10 Noroeste 0 -- -- 57
2020-03-11 22:00:00 18.6 3 Norte 12 Noroeste 0 -- -- 27
2020-03-11 21:00:00 20.8 9 Noroeste 17 Noroeste 0 -- -- 50
2020-03-11 20:00:00 21.7 12 Noroeste 15 Noroeste 0 -- -- 17
2020-03-11 19:00:00 22.1 7 Noroeste 9 Noroeste 0 -- -- 25
2020-03-11 18:00:00 24.2 2 Sudeste 9 Este 0 -- -- 58
2020-03-11 17:00:00 25.2 6 Este 12 Este 0 -- -- 53
2020-03-11 16:00:00 24.1 9 Nordeste 14 Este 0 -- -- 58
2020-03-11 15:00:00 25.4 10 Este 16 Este 0 -- -- 50
2020-03-11 14:00:00 25.2 10 Este 14 Este 0 -- -- 52
2020-03-11 13:00:00 22.9 8 Nordeste 12 Nordeste 0 -- -- 60
2020-03-11 12:00:00 23.4 9 Este 14 Nordeste 0 -- -- 57
2020-03-11 11:00:00 23 7 Nordeste 14 Este 0 -- -- 51
2020-03-11 10:00:00 23.6 8 Nordeste 14 Este 0 -- -- 33
2020-03-11 09:00:00 16.5 4 Norte 10 Noroeste 0 -- -- 38
2020-03-11 08:00:00 13.6 6 Noroeste 9 Noroeste 0 -- -- 36
2020-03-11 07:00:00 12.9 6 Norte 21 Norte 0 -- -- 85
2020-03-11 06:00:00 13 9 Nordeste 15 Nordeste 0 -- -- 86
2020-03-11 05:00:00 13.9 5 Nordeste 13 Nordeste 0 -- -- 77
2020-03-11 04:00:00 13.6 6 Nordeste 10 Noroeste 0 -- -- 77
2020-03-11 03:00:00 15.8 5 Norte 17 Norte 0 -- -- 37
2020-03-11 02:00:00 16.7 11 Norte 17 Nordeste 0 -- -- 12
2020-03-11 01:00:00 12.9 7 Norte 12 Nordeste 0 -- -- 91
2020-03-11 00:00:00 13.3 5 Norte 9 Nordeste 0 -- -- 90
2020-03-10 23:00:00 13.7 4 Oeste 12 Oeste 0 -- -- 45
2020-03-10 22:00:00 14 3 Norte 10 Norte 0 -- -- 85
2020-03-10 21:00:00 15.1 6 Norte 10 Norte 0 -- -- 92
2020-03-10 20:00:00 15.4 5 Nordeste 8 Nordeste 0 -- -- 90
2020-03-10 19:00:00 16.7 6 Nordeste 10 Este 0 -- -- 84
2020-03-10 18:00:00 19.5 6 Este 14 Nordeste 0 -- -- 71
2020-03-10 17:00:00 21.5 8 Este 18 Nordeste 0 -- -- 64
2020-03-10 16:00:00 20.9 14 Nordeste 27 Este 0 -- -- 68
2020-03-10 15:00:00 21 17 Nordeste 30 Nordeste 0 -- -- 67
2020-03-10 14:00:00 21.4 18 Nordeste 27 Nordeste 0 -- -- 66
2020-03-10 13:00:00 22.7 19 Este 30 Este 0 -- -- 59
2020-03-10 12:00:00 24 18 Este 25 Este 0 -- -- 34
2020-03-10 11:00:00 23.2 16 Nordeste 25 Este 0 -- -- 40
2020-03-10 10:00:00 22.5 6 Nordeste 14 Nordeste 0 -- -- 50
2020-03-10 09:00:00 22 9 Nordeste 15 Nordeste 0 -- -- 21
2020-03-10 08:00:00 20 9 Nordeste 17 Norte 0 -- -- 14
2020-03-10 07:00:00 18.1 9 Norte 16 Nordeste 0 -- -- 17
2020-03-10 06:00:00 17.9 5 Nordeste 20 Norte 0 -- -- 19
2020-03-10 05:00:00 16.8 7 Norte 11 Norte 0 -- -- 24
2020-03-10 04:00:00 16.7 8 Noroeste 13 Norte 0 -- -- 24
2020-03-10 03:00:00 16.2 6 Nordeste 15 Nordeste 0 -- -- 28
2020-03-10 02:00:00 15.7 4 Norte 15 Nordeste 0 -- -- 34
2020-03-10 01:00:00 16.2 6 Nordeste 17 Norte 0 -- -- 40
2020-03-10 00:00:00 17.9 10 Norte 17 Norte 0 -- -- 26
2020-03-09 23:00:00 16.7 12 Nordeste 20 Nordeste 0 -- -- 48
2020-03-09 22:00:00 14.4 4 Norte 8 Norte 0 -- -- 94
2020-03-09 21:00:00 15 3 Nordeste 12 Norte 0 -- -- 93
2020-03-09 20:00:00 16.1 6 Nordeste 12 Nordeste 0 -- -- 91
2020-03-09 19:00:00 17.1 6 Nordeste 14 Nordeste 0 -- -- 87
2020-03-09 18:00:00 18.9 10 Nordeste 17 Nordeste 0 -- -- 79
2020-03-09 17:00:00 20.8 10 Nordeste 23 Este 0 -- -- 71
2020-03-09 16:00:00 22.9 12 Este 23 Nordeste 0 -- -- 62
2020-03-09 15:00:00 23.4 17 Este 26 Este 0 -- -- 52
2020-03-09 14:00:00 24.6 12 Este 21 Este 0 -- -- 51
2020-03-09 13:00:00 25 14 Nordeste 24 Este 0 -- -- 47
2020-03-09 12:00:00 24.3 13 Este 19 Este 0 -- -- 53
2020-03-09 11:00:00 23 12 Nordeste 19 Este 0 -- -- 57
2020-03-09 10:00:00 21.8 10 Este 18 Nordeste 0 -- -- 48
2020-03-09 09:00:00 19.7 7 Nordeste 13 Norte 0 -- -- 40
2020-03-09 08:00:00 17.4 8 Norte 15 Nordeste 0 -- -- 24
2020-03-09 07:00:00 15.3 6 Norte 12 Nordeste 0 -- -- 32
2020-03-09 06:00:00 16.4 6 Nordeste 17 Nordeste 0 -- -- 29
2020-03-09 05:00:00 15.8 10 Nordeste 18 Norte 0 -- -- 34
2020-03-09 04:00:00 13.4 9 Nordeste 18 Norte 0 -- -- 74
2020-03-09 03:00:00 13.4 5 Noroeste 19 Nordeste 0 -- -- 92
2020-03-09 02:00:00 13.6 10 Nordeste 18 Nordeste 0 -- -- 95
2020-03-09 01:00:00 13.8 8 Nordeste 16 Norte 0 -- -- 95
2020-03-09 00:00:00 14 6 Norte 12 Nordeste 0 -- -- 95
2020-03-08 23:00:00 14.1 6 Norte 12 Norte 0 -- -- 95
2020-03-08 22:00:00 14.3 7 Norte 11 Nordeste 0 -- -- 95
2020-03-08 21:00:00 14.6 4 Norte 9 Este 0 -- -- 93
2020-03-08 20:00:00 15.2 5 Nordeste 9 Nordeste 0 -- -- 90
2020-03-08 19:00:00 16.5 6 Nordeste 15 Nordeste 0 -- -- 86
2020-03-08 18:00:00 18.3 10 Nordeste 24 Nordeste 0 -- -- 80
2020-03-08 17:00:00 19.5 17 Nordeste 37 Este 0 -- -- 74
2020-03-08 16:00:00 20.3 20 Nordeste 32 Este 0 -- -- 70
2020-03-08 15:00:00 21.2 19 Nordeste 30 Nordeste 0 -- -- 66
2020-03-08 14:00:00 22.2 17 Nordeste 28 Nordeste 0 -- -- 62
2020-03-08 13:00:00 22.7 14 Nordeste 29 Nordeste 0 -- -- 58
2020-03-08 12:00:00 23.8 12 Este 20 Nordeste 0 -- -- 55
2020-03-08 11:00:00 22 10 Este 17 Nordeste 0 -- -- 60
2020-03-08 10:00:00 19 13 Nordeste 21 Nordeste 0 -- -- 67
2020-03-08 09:00:00 16.2 10 Nordeste 23 Nordeste 0 -- -- 74
2020-03-08 08:00:00 13.3 15 Nordeste 26 Nordeste 0 -- -- 85
2020-03-08 07:00:00 12.6 11 Norte 26 Nordeste 0 -- -- 83
2020-03-08 06:00:00 12.5 11 Norte 21 Nordeste 0 -- -- 81
2020-03-08 05:00:00 12.9 15 Nordeste 25 Nordeste 0 -- -- 85
2020-03-08 04:00:00 13.2 18 Nordeste 30 Nordeste 0 -- -- 84
2020-03-08 03:00:00 13.2 18 Nordeste 28 Nordeste 0 -- -- 83
2020-03-08 02:00:00 12.8 12 Norte 21 Nordeste 0 -- -- 81
2020-03-08 01:00:00 13.2 13 Nordeste 28 Nordeste 0 -- -- 81
2020-03-08 00:00:00 13.6 15 Nordeste 33 Nordeste 0 -- -- 83
2020-03-07 23:00:00 13.3 12 Nordeste 25 Nordeste 0 -- -- 82
2020-03-07 22:00:00 13.6 14 Nordeste 27 Nordeste 0 -- -- 84
2020-03-07 21:00:00 14 19 Nordeste 32 Nordeste 0 -- -- 84
2020-03-07 20:00:00 14.3 18 Nordeste 36 Nordeste 0 -- -- 82
2020-03-07 19:00:00 14.8 21 Nordeste 37 Nordeste 0 -- -- 80
2020-03-07 18:00:00 16.2 26 Nordeste 47 Nordeste 0 -- -- 74
2020-03-07 17:00:00 17.1 28 Nordeste 45 Nordeste 0 -- -- 69
2020-03-07 16:00:00 17.7 32 Nordeste 56 Este 0 -- -- 68
2020-03-07 15:00:00 18.6 29 Nordeste 45 Nordeste 0 -- -- 65
2020-03-07 14:00:00 19.3 27 Nordeste 45 Nordeste 0 -- -- 60
2020-03-07 13:00:00 19.2 25 Nordeste 48 Nordeste 0 -- -- 59
2020-03-07 12:00:00 17.9 31 Nordeste 53 Nordeste 0 -- -- 62
2020-03-07 11:00:00 17.8 28 Nordeste 51 Nordeste 0 -- -- 63
2020-03-07 10:00:00 16.9 28 Nordeste 46 Nordeste 0 -- -- 65
2020-03-07 09:00:00 15.3 23 Nordeste 42 Nordeste 0 -- -- 74
2020-03-07 08:00:00 13.4 17 Nordeste 31 Nordeste 0 -- -- 73
2020-03-07 07:00:00 13.2 18 Nordeste 39 Nordeste 0 -- -- 75
2020-03-07 06:00:00 13 18 Nordeste 38 Nordeste 0 -- -- 76
2020-03-07 05:00:00 13.2 25 Nordeste 50 Nordeste 0 -- -- 73
2020-03-07 04:00:00 13.2 23 Nordeste 45 Nordeste 0 -- -- 74
2020-03-07 03:00:00 13.4 24 Nordeste 43 Nordeste 0 -- -- 71
2020-03-07 02:00:00 13.3 23 Nordeste 48 Nordeste 0 -- -- 73
2020-03-07 01:00:00 13.2 26 Nordeste 50 Norte 0 -- -- 73
2020-03-07 00:00:00 13.5 27 Nordeste 49 Nordeste 0 -- -- 70
2020-03-06 23:00:00 13.3 30 Nordeste 45 Nordeste 0 -- -- 71
2020-03-06 22:00:00 13.7 31 Nordeste 46 Nordeste 0 -- -- 72
2020-03-06 21:00:00 13.4 21 Nordeste 49 Nordeste 0 -- -- 73
2020-03-06 20:00:00 13.9 30 Nordeste 61 Nordeste 0 -- -- 71
2020-03-06 19:00:00 14.3 35 Nordeste 55 Nordeste 0 -- -- 74
2020-03-06 18:00:00 15.7 36 Nordeste 60 Nordeste 0 -- -- 68
2020-03-06 17:00:00 16.7 33 Nordeste 59 Nordeste 0 -- -- 64
2020-03-06 16:00:00 17.4 35 Nordeste 60 Nordeste 0 -- -- 61
2020-03-06 15:00:00 17.8 37 Nordeste 64 Nordeste 0 -- -- 62
2020-03-06 14:00:00 18.1 43 Nordeste 64 Nordeste 0 -- -- 58
2020-03-06 13:00:00 18.1 38 Nordeste 64 Este 0 -- -- 60
2020-03-06 12:00:00 17.3 41 Nordeste 70 Nordeste 0 -- -- 63
2020-03-06 11:00:00 17 40 Nordeste 67 Este 0 -- -- 62
2020-03-06 10:00:00 16.1 41 Nordeste 66 Nordeste 0 -- -- 67
2020-03-06 09:00:00 15.5 36 Nordeste 66 Nordeste 0 -- -- 70
2020-03-06 08:00:00 14.1 32 Nordeste 51 Nordeste 0 -- -- 82
2020-03-06 07:00:00 13.7 27 Nordeste 49 Nordeste 0 -- -- 87
2020-03-06 06:00:00 14.1 30 Nordeste 50 Nordeste 0 -- -- 95
2020-03-06 05:00:00 14.4 23 Nordeste 44 Nordeste 0 -- -- 94
2020-03-06 04:00:00 14.8 26 Nordeste 52 Nordeste 0 -- -- 92
2020-03-06 03:00:00 14.9 26 Nordeste 43 Nordeste 0 -- -- 95
2020-03-06 02:00:00 15.6 26 Nordeste 57 Nordeste 0 -- -- 87
2020-03-06 01:00:00 15.3 27 Nordeste 57 Nordeste 0 -- -- 80
2020-03-06 00:00:00 15.2 25 Nordeste 50 Nordeste 0 -- -- 79
2020-03-05 23:00:00 15 26 Nordeste 43 Nordeste 0 -- -- 81
2020-03-05 22:00:00 14.9 28 Nordeste 47 Nordeste 0 -- -- 82
2020-03-05 21:00:00 14.8 28 Nordeste 41 Nordeste 0 -- -- 83
2020-03-05 20:00:00 15 22 Nordeste 35 Nordeste 0 -- -- 83
2020-03-05 19:00:00 15.3 20 Nordeste 37 Nordeste 0 -- -- 84
2020-03-05 18:00:00 16.7 24 Nordeste 49 Este 0 -- -- 78
2020-03-05 17:00:00 18.2 22 Nordeste 42 Nordeste 0 -- -- 73
2020-03-05 16:00:00 18.7 26 Nordeste 45 Nordeste 0 -- -- 71
2020-03-05 15:00:00 18.8 29 Nordeste 48 Nordeste 0 -- -- 72
2020-03-05 14:00:00 18.9 29 Nordeste 46 Nordeste 0 -- -- 74
2020-03-05 13:00:00 19 29 Nordeste 46 Nordeste 0 -- -- 72
2020-03-05 12:00:00 18.4 30 Nordeste 44 Nordeste 0 -- -- 76
2020-03-05 11:00:00 18 27 Nordeste 40 Nordeste 0 -- -- 77
2020-03-05 10:00:00 17.7 21 Nordeste 32 Nordeste 0 -- -- 80
2020-03-05 09:00:00 15.7 14 Nordeste 21 Nordeste 0 -- -- 89
2020-03-05 08:00:00 14.5 11 Nordeste 24 Nordeste 0 -- -- 94
2020-03-05 07:00:00 14.2 14 Nordeste 23 Nordeste 0 -- -- 94
2020-03-05 06:00:00 14.5 13 Nordeste 27 Nordeste 0 -- -- 94
2020-03-05 05:00:00 14.4 9 Nordeste 21 Nordeste 0 -- -- 94
2020-03-05 04:00:00 14.4 11 Nordeste 21 Nordeste 0 -- -- 95
2020-03-05 03:00:00 14.3 15 Nordeste 25 Nordeste 0 -- -- 96
2020-03-05 02:00:00 14.2 8 Norte 13 Norte 0 -- -- 95
2020-03-05 01:00:00 14.4 7 Norte 17 Nordeste 0 -- -- 93
2020-03-05 00:00:00 14.7 10 Nordeste 15 Nordeste 0 -- -- 94
2020-03-04 23:00:00 14.7 5 Norte 10 Norte 0 -- -- 95
2020-03-04 22:00:00 14.9 5 Nordeste 8 Nordeste 0 -- -- 94
2020-03-04 21:00:00 15.6 4 Sudoeste 9 Sudoeste 0 -- -- 94
2020-03-04 20:00:00 15.8 3 Noroeste 8 Nordeste 0 -- -- 89
2020-03-04 19:00:00 16.8 6 Nordeste 12 Nordeste 0 -- -- 87
2020-03-04 18:00:00 19.1 9 Nordeste 16 Este 0 -- -- 78
2020-03-04 17:00:00 20.6 11 Nordeste 24 Nordeste 0 -- -- 71
2020-03-04 16:00:00 21.4 16 Nordeste 27 Este 0 -- -- 67
2020-03-04 15:00:00 21.7 18 Nordeste 31 Este 0 -- -- 66
2020-03-04 14:00:00 23.3 15 Este 22 Nordeste 0 -- -- 59
2020-03-04 13:00:00 23.3 14 Nordeste 22 Este 0 -- -- 59
2020-03-04 12:00:00 23.9 15 Nordeste 28 Nordeste 0 -- -- 50
2020-03-04 11:00:00 22.1 16 Nordeste 24 Este 0 -- -- 52
2020-03-04 10:00:00 19.5 12 Nordeste 18 Nordeste 0 -- -- 72
2020-03-04 09:00:00 17.1 9 Nordeste 13 Nordeste 0 -- -- 78
2020-03-04 08:00:00 14.7 4 Nordeste 7 Norte 0 -- -- 71
2020-03-04 07:00:00 15.1 6 Norte 13 Norte 0 -- -- 40
2020-03-04 06:00:00 16.2 9 Norte 22 Norte 0 -- -- 37
2020-03-04 05:00:00 16.3 10 Norte 19 Nordeste 0 -- -- 37
2020-03-04 04:00:00 16.5 10 Norte 26 Nordeste 0 -- -- 35
2020-03-04 03:00:00 15.4 7 Nordeste 24 Nordeste 0 -- -- 64
2020-03-04 02:00:00 16.3 11 Nordeste 19 Nordeste 0 -- -- 44
2020-03-04 01:00:00 16 8 Nordeste 20 Nordeste 0 -- -- 52
2020-03-04 00:00:00 16.5 7 Norte 17 Noroeste 0 -- -- 46
2020-03-03 23:00:00 16.6 12 Nordeste 26 Nordeste 0 -- -- 52
2020-03-03 22:00:00 15.3 10 Nordeste 20 Norte 0 -- -- 69
2020-03-03 21:00:00 14.6 8 Nordeste 26 Nordeste 0 -- -- 92
2020-03-03 20:00:00 15 14 Nordeste 24 Nordeste 0 -- -- 91
2020-03-03 19:00:00 15.7 16 Nordeste 28 Nordeste 0 -- -- 88
2020-03-03 18:00:00 17.4 20 Nordeste 32 Nordeste 0 -- -- 80
2020-03-03 17:00:00 18.7 21 Nordeste 30 Nordeste 0 -- -- 75
2020-03-03 16:00:00 19.6 21 Nordeste 40 Nordeste 0 -- -- 72
2020-03-03 15:00:00 20.4 21 Nordeste 33 Este 0 -- -- 69
2020-03-03 14:00:00 20.6 22 Nordeste 34 Nordeste 0 -- -- 67
2020-03-03 13:00:00 20 22 Nordeste 35 Nordeste 0 -- -- 69
2020-03-03 12:00:00 19.4 24 Nordeste 37 Nordeste 0 -- -- 70
2020-03-03 11:00:00 18.8 23 Nordeste 36 Nordeste 0 -- -- 73
2020-03-03 10:00:00 17.8 21 Nordeste 33 Nordeste 0 -- -- 76
2020-03-03 09:00:00 16.3 17 Nordeste 28 Nordeste 0 -- -- 82
2020-03-03 08:00:00 13.8 10 Nordeste 24 Nordeste 0 -- -- 93
2020-03-03 07:00:00 13.1 13 Norte 25 Nordeste 0 -- -- 93
2020-03-03 06:00:00 12.9 9 Norte 26 Nordeste 0 -- -- 91
2020-03-03 05:00:00 13.5 13 Norte 24 Nordeste 0 -- -- 91
2020-03-03 04:00:00 13.8 17 Nordeste 23 Nordeste 0 -- -- 91
2020-03-03 03:00:00 14.3 12 Nordeste 22 Nordeste 0 -- -- 90
2020-03-03 02:00:00 13.8 11 Nordeste 24 Nordeste 0 -- -- 85
2020-03-03 01:00:00 13.9 13 Nordeste 23 Nordeste 0 -- -- 84
2020-03-03 00:00:00 14.2 14 Nordeste 20 Nordeste 0 -- -- 86
2020-03-02 23:00:00 14.8 12 Nordeste 30 Nordeste 0 -- -- 88
2020-03-02 22:00:00 15.5 24 Nordeste 39 Nordeste 0 -- -- 90
2020-03-02 21:00:00 15.7 20 Nordeste 33 Nordeste 0 -- -- 89
2020-03-02 20:00:00 15.7 17 Nordeste 27 Nordeste 0 -- -- 87
2020-03-02 19:00:00 16.2 17 Nordeste 27 Nordeste 0 -- -- 83
2020-03-02 18:00:00 17.5 19 Nordeste 33 Nordeste 0 -- -- 77
2020-03-02 17:00:00 19.3 21 Nordeste 33 Nordeste 0 -- -- 71
2020-03-02 16:00:00 20 20 Nordeste 36 Nordeste 0 -- -- 68
2020-03-02 15:00:00 20.2 22 Nordeste 42 Nordeste 0 -- -- 66
2020-03-02 14:00:00 20.4 23 Nordeste 36 Este 0 -- -- 66
2020-03-02 13:00:00 21.3 20 Nordeste 31 Este 0 -- -- 65
2020-03-02 12:00:00 21 18 Este 32 Nordeste 0 -- -- 63
2020-03-02 11:00:00 20 15 Este 26 Este 0 -- -- 63
2020-03-02 10:00:00 19.4 9 Este 18 Nordeste 0 -- -- 61
2020-03-02 09:00:00 17.1 6 Este 12 Nordeste 0 -- -- 68
2020-03-02 08:00:00 13.6 5 Noroeste 13 Oeste 0 -- -- 74
2020-03-02 07:00:00 13.3 11 Oeste 15 Oeste 0 -- -- 79
2020-03-02 06:00:00 13.2 11 Oeste 15 Oeste 0 -- -- 81
2020-03-02 05:00:00 13.3 9 Oeste 11 Oeste 0 -- -- 87
2020-03-02 04:00:00 13.4 5 Norte 13 Norte 0 -- -- 87
2020-03-02 03:00:00 13.4 5 Noroeste 14 Sudoeste 0 -- -- 81
2020-03-02 02:00:00 14.2 11 Oeste 22 Sudoeste 0 -- -- 84
2020-03-02 01:00:00 15.1 14 Sudoeste 23 Sudoeste 0 -- -- 83
2020-03-02 00:00:00 15.6 6 Sur 12 Sudoeste 0 -- -- 83